createdAt,value
2022-09-06T00:00:15.097Z,12.96
2022-09-06T00:03:30.553Z,12.69
2022-09-06T00:06:33.178Z,12.62
2022-09-06T00:09:35.875Z,13.59
2022-09-06T00:12:38.437Z,14.08
2022-09-06T00:15:41.155Z,13.56
2022-09-06T00:18:44.333Z,13.04
2022-09-06T00:21:46.868Z,12.74
2022-09-06T00:24:49.508Z,12.52
2022-09-06T00:27:55.117Z,12.59
2022-09-06T00:30:57.746Z,13.60
2022-09-06T00:34:00.384Z,14.08
2022-09-06T00:37:03.183Z,13.43
2022-09-06T00:40:07.302Z,12.93
2022-09-06T00:43:09.972Z,12.56
2022-09-06T00:46:15.440Z,12.31
2022-09-06T00:49:23.798Z,12.86
2022-09-06T00:52:27.083Z,13.83
2022-09-06T00:55:29.614Z,13.66
2022-09-06T00:58:32.328Z,13.01
2022-09-06T01:01:35.347Z,12.60
2022-09-06T01:04:38.929Z,12.32
2022-09-06T01:07:51.326Z,12.88
2022-09-06T01:11:14.789Z,13.89
2022-09-06T01:14:22.025Z,13.56
2022-09-06T01:17:32.412Z,12.93
2022-09-06T01:20:45.305Z,12.46
2022-09-06T01:24:08.480Z,12.21
2022-09-06T01:27:34.604Z,13.14
2022-09-06T01:30:41.534Z,13.66
2022-09-06T01:33:48.406Z,12.96
2022-09-06T01:37:08.959Z,12.46
2022-09-06T01:40:12.834Z,12.08
2022-09-06T01:43:20.412Z,12.05
2022-09-06T01:46:27.397Z,12.94
2022-09-06T01:49:41.706Z,13.52
2022-09-06T01:52:50.311Z,12.87
2022-09-06T01:55:58.102Z,12.29
2022-09-06T01:59:11.552Z,11.98
2022-09-06T02:02:19.020Z,12.82
2022-09-06T02:05:26.011Z,13.50
2022-09-06T02:08:31.057Z,12.91
2022-09-06T02:11:37.806Z,12.25
2022-09-06T02:14:43.605Z,11.84
2022-09-06T02:17:50.218Z,11.55
2022-09-06T02:20:54.852Z,12.39
2022-09-06T02:23:59.068Z,13.15
2022-09-06T02:27:01.800Z,13.10
2022-09-06T02:30:05.281Z,12.36
2022-09-06T02:33:10.706Z,11.77
2022-09-06T02:36:14.029Z,11.51
2022-09-06T02:39:16.605Z,12.27
2022-09-06T02:42:19.369Z,12.96
2022-09-06T02:45:21.897Z,12.77
2022-09-06T02:48:24.858Z,12.04
2022-09-06T02:51:27.502Z,11.51
2022-09-06T02:54:30.711Z,12.08
2022-09-06T02:57:33.236Z,12.76
2022-09-06T03:00:36.856Z,12.97
2022-09-06T03:03:39.525Z,12.17
2022-09-06T03:06:42.217Z,11.51
2022-09-06T03:09:44.782Z,11.96
2022-09-06T03:12:47.621Z,12.67
2022-09-06T03:15:51.404Z,13.15
2022-09-06T03:18:53.956Z,12.72
2022-09-06T03:21:56.627Z,11.97
2022-09-06T03:24:59.156Z,11.35
2022-09-06T03:28:02.212Z,11.05
2022-09-06T03:31:04.943Z,11.77
2022-09-06T03:34:10.995Z,12.44
2022-09-06T03:37:13.830Z,12.90
2022-09-06T03:40:16.455Z,12.48
2022-09-06T03:43:20.091Z,11.72
2022-09-06T03:46:22.870Z,11.14
2022-09-06T03:49:25.435Z,10.72
2022-09-06T03:52:28.019Z,11.32
2022-09-06T03:55:30.863Z,12.36
2022-09-06T03:58:33.462Z,13.01
2022-09-06T04:01:36.172Z,13.32
2022-09-06T04:04:38.732Z,13.62
2022-09-06T04:07:42.449Z,13.45
2022-09-06T04:10:44.993Z,12.41
2022-09-06T04:13:48.151Z,11.62
2022-09-06T04:16:50.729Z,11.05
2022-09-06T04:19:53.357Z,10.63
2022-09-06T04:22:55.866Z,10.73
2022-09-06T04:25:58.985Z,11.62
2022-09-06T04:29:01.716Z,12.39
2022-09-06T04:32:04.305Z,12.94
2022-09-06T04:35:08.370Z,13.39
2022-09-06T04:38:11.020Z,12.79
2022-09-06T04:41:15.308Z,12.23
2022-09-06T04:44:18.418Z,12.04
2022-09-06T04:47:20.978Z,12.00
2022-09-06T04:50:23.523Z,12.14
2022-09-06T04:53:26.175Z,13.31
2022-09-06T04:56:29.588Z,14.48
2022-09-06T04:59:32.538Z,14.86
2022-09-06T05:02:35.117Z,14.34
2022-09-06T05:05:37.876Z,13.92
2022-09-06T05:08:41.020Z,13.67
2022-09-06T05:11:43.747Z,13.53
2022-09-06T05:14:46.339Z,13.52
2022-09-06T05:17:49.165Z,13.45
2022-09-06T05:20:52.551Z,13.45
2022-09-06T05:23:58.465Z,13.35
2022-09-06T05:27:03.794Z,13.21
2022-09-06T05:30:07.415Z,13.48
2022-09-06T05:33:10.374Z,14.53
2022-09-06T05:36:12.940Z,15.33
2022-09-06T05:39:15.479Z,15.07
2022-09-06T05:42:19.412Z,14.52
2022-09-06T05:45:22.398Z,14.17
2022-09-06T05:48:25.214Z,13.96
2022-09-06T05:51:27.919Z,13.83
2022-09-06T05:54:30.513Z,13.75
2022-09-06T05:57:33.142Z,14.73
2022-09-06T06:00:36.265Z,15.61
2022-09-06T06:03:38.963Z,15.63
2022-09-06T06:06:41.617Z,15.15
2022-09-06T06:09:44.218Z,14.90
2022-09-06T06:12:46.744Z,14.76
2022-09-06T06:15:49.492Z,14.68
2022-09-06T06:18:52.854Z,14.63
2022-09-06T06:21:57.897Z,14.61
2022-09-06T06:25:00.439Z,14.58
2022-09-06T06:28:03.515Z,14.51
2022-09-06T06:31:06.905Z,14.53
2022-09-06T06:34:09.506Z,14.58
2022-09-06T06:37:15.477Z,14.62
2022-09-06T06:40:25.079Z,14.66
2022-09-06T06:43:35.615Z,14.68
2022-09-06T06:46:38.330Z,14.72
2022-09-06T06:49:40.982Z,14.76
2022-09-06T06:52:43.595Z,14.87
2022-09-06T06:55:47.860Z,14.89
2022-09-06T06:58:52.050Z,14.96
2022-09-06T07:08:41.000Z,15.28
2022-09-06T07:11:43.683Z,15.37
2022-09-06T07:14:46.348Z,15.48
2022-09-06T07:17:48.920Z,15.65
2022-09-06T07:24:14.301Z,15.94
2022-09-06T07:30:39.498Z,16.37
2022-09-06T07:33:42.068Z,16.56
2022-09-06T07:36:44.611Z,16.78
2022-09-06T07:39:47.530Z,16.95
2022-09-06T07:42:50.271Z,17.10
2022-09-06T07:46:03.165Z,17.30
2022-09-06T07:49:06.098Z,17.48
2022-09-06T07:55:31.215Z,17.88
2022-09-06T07:58:34.105Z,18.06
2022-09-06T08:01:37.097Z,18.21
2022-09-06T08:04:40.534Z,18.25
2022-09-06T08:07:43.179Z,18.37
2022-09-06T08:10:50.544Z,18.44
2022-09-06T08:13:55.028Z,18.56
2022-09-06T08:16:58.078Z,18.72
2022-09-06T08:20:00.522Z,18.82
2022-09-06T08:23:08.934Z,18.96
2022-09-06T08:26:11.605Z,19.00
2022-09-06T08:29:14.286Z,19.09
2022-09-06T08:32:18.789Z,19.20
2022-09-06T08:35:21.326Z,19.34
2022-09-06T08:38:24.206Z,19.48
2022-09-06T08:41:27.557Z,19.52
2022-09-06T08:47:57.263Z,19.72
2022-09-06T08:51:03.699Z,19.75
2022-09-06T08:54:11.046Z,19.75
2022-09-06T08:57:20.867Z,19.80
2022-09-06T09:00:23.567Z,19.87
2022-09-06T09:03:31.055Z,19.93
2022-09-06T09:06:34.433Z,19.97
2022-09-06T09:09:37.086Z,20.07
2022-09-06T09:12:43.986Z,20.19
2022-09-06T09:15:46.627Z,20.30
2022-09-06T09:18:51.141Z,20.47
2022-09-06T09:21:54.229Z,20.51
2022-09-06T09:24:58.897Z,20.55
2022-09-06T09:28:02.206Z,20.65
2022-09-06T09:31:07.166Z,20.83
2022-09-06T09:34:13.701Z,21.09
2022-09-06T09:40:49.313Z,21.41
2022-09-06T09:43:59.194Z,21.57
2022-09-06T09:47:21.935Z,21.74
2022-09-06T09:50:27.150Z,21.99
2022-09-06T09:53:29.734Z,22.20
2022-09-06T09:56:37.592Z,22.37
2022-09-06T09:59:42.874Z,22.67
2022-09-06T10:02:45.526Z,22.86
2022-09-06T10:06:02.048Z,23.06
2022-09-06T10:09:29.459Z,23.13
2022-09-06T10:12:32.874Z,23.26
2022-09-06T10:15:36.363Z,23.51
2022-09-06T10:18:40.332Z,23.77
2022-09-06T10:21:42.909Z,24.02
2022-09-06T10:24:51.650Z,24.26
2022-09-06T10:28:12.647Z,24.47
2022-09-06T10:31:25.624Z,24.63
2022-09-06T10:34:43.642Z,24.71
2022-09-06T10:37:50.600Z,24.88
2022-09-06T10:40:58.312Z,24.81
2022-09-06T10:44:06.211Z,24.81
2022-09-06T10:47:10.987Z,24.80
2022-09-06T10:50:14.399Z,24.77
2022-09-06T10:53:24.626Z,24.77
2022-09-06T10:56:31.531Z,24.77
2022-09-06T10:59:36.595Z,24.82
2022-09-06T11:02:43.985Z,24.90
2022-09-06T11:05:49.374Z,25.09
2022-09-06T11:08:58.100Z,25.26
2022-09-06T11:12:06.977Z,25.42
2022-09-06T11:15:11.667Z,25.56
2022-09-06T11:18:18.176Z,25.74
2022-09-06T11:21:35.199Z,25.83
2022-09-06T11:24:47.868Z,25.93
2022-09-06T11:27:57.305Z,25.70
2022-09-06T11:31:01.231Z,25.64
2022-09-06T11:34:06.103Z,25.67
2022-09-06T11:37:21.506Z,25.84
2022-09-06T11:40:27.518Z,26.00
2022-09-06T11:43:45.715Z,26.05
2022-09-06T11:46:58.840Z,26.12
2022-09-06T11:50:17.802Z,26.24
2022-09-06T11:53:21.104Z,26.38
2022-09-06T11:56:28.254Z,26.43
2022-09-06T11:59:35.469Z,26.53
2022-09-06T12:02:41.221Z,26.59
2022-09-06T12:05:58.753Z,26.60
2022-09-06T12:09:02.213Z,26.45
2022-09-06T12:12:05.825Z,26.36
2022-09-06T12:15:25.797Z,26.36
2022-09-06T12:18:52.084Z,26.05
2022-09-06T12:21:54.791Z,25.88
2022-09-06T12:24:59.183Z,25.63
2022-09-06T12:28:02.716Z,25.55
2022-09-06T12:31:23.278Z,25.63
2022-09-06T12:34:28.447Z,25.66
2022-09-06T12:37:36.737Z,25.74
2022-09-06T12:40:40.966Z,25.70
2022-09-06T12:43:43.768Z,25.76
2022-09-06T12:46:47.692Z,25.88
2022-09-06T12:50:04.653Z,25.76
2022-09-06T12:53:23.392Z,25.76
2022-09-06T12:56:27.548Z,25.76
2022-09-06T12:59:31.863Z,25.70
2022-09-06T13:02:37.284Z,25.46
2022-09-06T13:05:40.702Z,25.29
2022-09-06T13:08:47.002Z,25.22
2022-09-06T13:11:50.770Z,25.15
2022-09-06T13:14:54.761Z,25.02
2022-09-06T13:18:11.611Z,24.84
2022-09-06T13:21:23.820Z,24.77
2022-09-06T13:24:27.869Z,24.77
2022-09-06T13:27:35.007Z,24.82
2022-09-06T13:30:41.237Z,24.92
2022-09-06T13:33:44.662Z,24.97
2022-09-06T13:36:49.311Z,25.04
2022-09-06T13:39:52.382Z,25.08
2022-09-06T13:43:00.265Z,25.04
2022-09-06T13:46:06.792Z,25.01
2022-09-06T13:49:09.355Z,25.00
2022-09-06T13:52:12.061Z,25.00
2022-09-06T13:55:16.016Z,24.82
2022-09-06T13:58:18.652Z,24.70
2022-09-06T14:01:21.330Z,24.64
2022-09-06T14:04:24.871Z,24.50
2022-09-06T14:07:27.586Z,24.47
2022-09-06T14:10:30.166Z,24.50
2022-09-06T14:13:32.735Z,24.59
2022-09-06T14:16:35.525Z,24.64
2022-09-06T14:19:39.967Z,24.68
2022-09-06T14:22:42.582Z,24.77
2022-09-06T14:25:45.117Z,24.68
2022-09-06T14:28:47.847Z,24.46
2022-09-06T14:31:50.419Z,24.42
2022-09-06T14:34:53.054Z,24.46
2022-09-06T14:37:55.609Z,24.36
2022-09-06T14:41:03.276Z,24.29
2022-09-06T14:44:05.855Z,24.30
2022-09-06T14:47:08.465Z,24.36
2022-09-06T14:50:11.274Z,24.33
2022-09-06T14:53:38.802Z,24.32
2022-09-06T14:56:39.972Z,24.22
2022-09-06T14:59:42.622Z,24.09
2022-09-06T15:02:45.296Z,24.02
2022-09-06T15:05:48.395Z,23.97
2022-09-06T15:08:52.839Z,23.89
2022-09-06T15:11:58.403Z,23.84
2022-09-06T15:15:02.262Z,23.84
2022-09-06T15:18:04.991Z,23.81
2022-09-06T15:21:11.123Z,23.77
2022-09-06T15:24:14.097Z,23.78
2022-09-06T15:27:16.795Z,23.74
2022-09-06T15:30:19.409Z,23.70
2022-09-06T15:33:22.078Z,23.61
2022-09-06T15:36:24.872Z,23.58
2022-09-06T15:39:27.566Z,23.47
2022-09-06T15:42:30.346Z,23.44
2022-09-06T15:45:46.653Z,23.39
2022-09-06T15:48:50.509Z,23.34
2022-09-06T15:51:53.479Z,23.23
2022-09-06T15:55:14.898Z,23.12
2022-09-06T15:58:17.704Z,22.98
2022-09-06T16:01:21.161Z,22.85
2022-09-06T16:04:23.891Z,22.66
2022-09-06T16:07:27.090Z,22.53
2022-09-06T16:10:29.779Z,22.43
2022-09-06T16:13:33.260Z,22.36
2022-09-06T16:16:36.616Z,22.29
2022-09-06T16:19:39.642Z,22.17
2022-09-06T16:22:42.224Z,22.08
2022-09-06T16:25:47.371Z,21.98
2022-09-06T16:28:51.122Z,21.88
2022-09-06T16:31:59.041Z,21.81
2022-09-06T16:35:03.258Z,21.68
2022-09-06T16:38:09.089Z,21.53
2022-09-06T16:41:13.765Z,21.41
2022-09-06T16:44:17.540Z,21.31
2022-09-06T16:47:20.372Z,21.19
2022-09-06T16:50:22.953Z,21.06
2022-09-06T16:53:25.635Z,20.95
2022-09-06T16:56:31.188Z,20.78
2022-09-06T16:59:33.770Z,20.61
2022-09-06T17:02:36.513Z,20.44
2022-09-06T17:05:39.434Z,20.27
2022-09-06T17:08:42.127Z,20.10
2022-09-06T17:11:45.834Z,19.90
2022-09-06T17:14:48.670Z,19.72
2022-09-06T17:17:51.237Z,19.54
2022-09-06T17:20:57.529Z,19.34
2022-09-06T17:24:02.422Z,19.17
2022-09-06T17:27:05.319Z,18.99
2022-09-06T17:30:09.665Z,18.80
2022-09-06T17:33:12.870Z,18.66
2022-09-06T17:36:17.063Z,18.55
2022-09-06T17:39:20.457Z,18.38
2022-09-06T17:42:24.144Z,18.24
2022-09-06T17:45:26.864Z,18.11
2022-09-06T17:48:30.382Z,18.00
2022-09-06T17:51:33.601Z,17.88
2022-09-06T17:54:36.775Z,17.75
2022-09-06T17:57:39.531Z,17.66
2022-09-06T18:00:42.218Z,17.58
2022-09-06T18:03:45.628Z,17.51
2022-09-06T18:06:48.249Z,17.41
2022-09-06T18:09:51.164Z,17.31
2022-09-06T18:12:53.939Z,17.23
2022-09-06T18:15:56.569Z,17.11
2022-09-06T18:19:00.201Z,17.06
2022-09-06T18:22:04.022Z,17.02
2022-09-06T18:25:08.352Z,16.93
2022-09-06T18:28:11.050Z,16.86
2022-09-06T18:31:14.534Z,16.79
2022-09-06T18:34:17.985Z,16.76
2022-09-06T18:37:20.702Z,16.70
2022-09-06T18:40:23.345Z,16.69
2022-09-06T18:43:28.906Z,16.63
2022-09-06T18:46:32.561Z,16.58
2022-09-06T18:49:35.558Z,16.54
2022-09-06T18:52:38.163Z,16.45
2022-09-06T18:55:42.086Z,16.42
2022-09-06T18:58:44.780Z,16.35
2022-09-06T19:01:47.525Z,16.25
2022-09-06T19:04:53.550Z,16.24
2022-09-06T19:07:56.266Z,16.20
2022-09-06T19:11:00.771Z,16.17
2022-09-06T19:14:04.171Z,16.16
2022-09-06T19:17:07.008Z,16.11
2022-09-06T19:20:10.223Z,16.13
2022-09-06T19:23:12.819Z,16.10
2022-09-06T19:26:17.217Z,16.09
2022-09-06T19:29:19.862Z,16.09
2022-09-06T19:32:22.487Z,16.06
2022-09-06T19:35:25.045Z,16.01
2022-09-06T19:38:27.899Z,15.98
2022-09-06T19:41:36.032Z,15.96
2022-09-06T19:44:38.759Z,15.92
2022-09-06T19:47:41.349Z,15.87
2022-09-06T19:50:43.992Z,15.82
2022-09-06T19:53:49.349Z,15.73
2022-09-06T19:56:52.283Z,15.69
2022-09-06T19:59:55.004Z,15.59
2022-09-06T20:02:57.641Z,15.52
2022-09-06T20:06:01.186Z,15.44
2022-09-06T20:09:05.749Z,15.34
2022-09-06T20:12:08.975Z,15.25
2022-09-06T20:15:11.760Z,15.19
2022-09-06T20:18:14.685Z,15.13
2022-09-06T20:21:17.891Z,15.06
2022-09-06T20:24:20.781Z,15.03
2022-09-06T20:27:23.490Z,14.97
2022-09-06T20:30:26.274Z,14.93
2022-09-06T20:33:29.436Z,14.86
2022-09-06T20:36:32.537Z,14.79
2022-09-06T20:39:35.269Z,14.75
2022-09-06T20:42:41.634Z,14.68
2022-09-06T20:45:46.217Z,14.58
2022-09-06T20:48:49.545Z,14.52
2022-09-06T20:51:52.225Z,14.48
2022-09-06T20:54:54.935Z,14.43
2022-09-06T20:57:57.644Z,14.39
2022-09-06T21:01:05.345Z,14.38
2022-09-06T21:04:09.120Z,14.35
2022-09-06T21:07:11.755Z,14.34
2022-09-06T21:10:14.564Z,14.29
2022-09-06T21:13:17.389Z,14.27
2022-09-06T21:16:24.676Z,14.23
2022-09-06T21:19:27.778Z,14.15
2022-09-06T21:22:30.512Z,14.11
2022-09-06T21:25:33.211Z,14.03
2022-09-06T21:28:37.008Z,13.97
2022-09-06T21:31:40.298Z,13.96
2022-09-06T21:34:42.928Z,13.86
2022-09-06T21:37:45.661Z,13.79
2022-09-06T21:40:48.374Z,13.72
2022-09-06T21:43:52.557Z,13.65
2022-09-06T21:46:56.053Z,13.62
2022-09-06T21:49:58.819Z,13.58
2022-09-06T21:53:01.533Z,13.52
2022-09-06T21:56:04.831Z,13.49
2022-09-06T21:59:08.030Z,13.43
2022-09-06T22:02:11.239Z,13.38
2022-09-06T22:05:14.513Z,13.35
2022-09-06T22:08:17.745Z,13.32
2022-09-06T22:11:21.847Z,13.27
2022-09-06T22:14:24.579Z,13.18
2022-09-06T22:17:27.282Z,13.15
2022-09-06T22:20:29.959Z,13.13
2022-09-06T22:23:33.105Z,13.08
2022-09-06T22:26:37.031Z,13.03
2022-09-06T22:29:40.174Z,12.94
2022-09-06T22:32:42.875Z,12.90
2022-09-06T22:35:45.424Z,12.86
2022-09-06T22:38:47.957Z,12.80
2022-09-06T22:41:50.580Z,12.76
2022-09-06T22:44:53.458Z,12.73
2022-09-06T22:47:56.132Z,12.74
2022-09-06T22:50:58.776Z,12.70
2022-09-06T22:54:01.828Z,12.66
2022-09-06T22:57:04.508Z,12.63
2022-09-06T23:00:08.580Z,12.59
2022-09-06T23:03:11.585Z,12.60
2022-09-06T23:06:14.467Z,12.53
2022-09-06T23:09:17.199Z,12.49
2022-09-06T23:12:19.884Z,12.48
2022-09-06T23:15:22.646Z,12.48
2022-09-06T23:18:25.665Z,12.44
2022-09-06T23:21:28.224Z,12.44
2022-09-06T23:24:30.932Z,12.38
2022-09-06T23:27:33.648Z,12.36
2022-09-06T23:30:37.324Z,12.32
2022-09-06T23:33:41.158Z,12.29
2022-09-06T23:36:44.686Z,12.25
2022-09-06T23:39:47.491Z,12.23
2022-09-06T23:42:50.123Z,12.17
2022-09-06T23:45:52.787Z,12.14
2022-09-06T23:48:55.355Z,12.11
2022-09-06T23:51:57.933Z,12.09
2022-09-06T23:55:00.568Z,12.08
2022-09-06T23:58:03.148Z,12.08
